Terminal Aerodrome Forecast
Issued by NWS

Home | Current Version | Previous Version | Text Only | Print | Product List | Glossary Off
Versions: 1 2 3 4 5 6 7 8 9 10 11 12 13 14 15 16 17 18 19 20 21 22 23 24 25 26

393
FTUS43 KABR 261113 AAB
TAFPIR
TAF AMD
KPIR 261113Z 2611/2706 VRB05KT P6SM SCT250
     FM261500 15009KT P6SM SCT250
     FM262100 12010KT P6SM VCTS SCT050CB SCT250=

USA.gov is the U.S. government's official web portal to all federal, state and local government web resources and services.